Time;durP1;ratioP1;P1;durP2;ratioP2;P2;SDS_P1;SDS_P2;PMS_P1;PMS_P2;Temp;Humidity;BMP_temperature;BMP_pressure;BME280_temperature;BME280_humidity;BME280_pressure;Samples;Min_cycle;Max_cycle;Signal;HPM_P1;HPM_P2
2022/05/02 00:00:16;;;;;;;1.80;0.60;;;;;;;9.02;50.73;100106.92;1732941;80;21060;-47
2022/05/02 00:02:42;;;;;;;2.80;0.67;;;;;;;9.02;50.43;100102.02;1735873;80;20953;-53
2022/05/02 00:05:09;;;;;;;3.20;0.60;;;;;;;9.02;50.12;100105.58;1731250;80;21072;-48
2022/05/02 00:07:36;;;;;;;5.00;0.70;;;;;;;9.03;50.37;100101.97;1730561;80;21268;-48
2022/05/02 00:10:05;;;;;;;2.40;0.60;;;;;;;9.04;50.38;100098.82;1714605;80;21105;-47
2022/05/02 00:12:31;;;;;;;1.23;0.60;;;;;;;9.04;50.25;100098.82;1705717;82;21561;-46
2022/05/02 00:14:59;;;;;;;1.90;0.80;;;;;;;9.04;49.98;100097.02;1697755;82;21117;-49
2022/05/02 00:20:11;;;;;;;5.58;0.60;;;;;;;9.07;49.28;100101.41;1703618;82;21227;-51
2022/05/02 00:22:37;;;;;;;2.10;0.70;;;;;;;9.08;49.07;100097.33;1702066;82;21109;-50
2022/05/02 00:25:05;;;;;;;2.30;0.60;;;;;;;9.09;48.81;100087.47;1701195;82;21120;-50
2022/05/02 00:27:31;;;;;;;2.50;0.80;;;;;;;9.11;48.58;100089.14;1702450;82;21061;-47
2022/05/02 00:29:59;;;;;;;0.83;0.50;;;;;;;9.14;48.23;100087.28;1702402;82;21000;-49
2022/05/02 00:32:25;;;;;;;6.30;0.60;;;;;;;9.17;48.03;100085.84;1700622;82;21689;-47
2022/05/02 00:34:52;;;;;;;3.77;0.70;;;;;;;9.19;48.04;100086.62;1696251;82;21496;-49
2022/05/02 00:37:19;;;;;;;1.73;0.40;;;;;;;9.21;47.91;100088.34;1700653;82;21109;-49
2022/05/02 00:39:45;;;;;;;1.93;0.60;;;;;;;9.22;47.71;100087.41;1702355;82;21042;-47
2022/05/02 00:42:12;;;;;;;2.23;0.60;;;;;;;9.25;47.53;100086.42;1703839;82;21053;-47
2022/05/02 00:44:43;;;;;;;1.07;0.40;;;;;;;9.26;47.57;100085.03;1698599;82;21721;-49
2022/05/02 00:47:09;;;;;;;1.80;0.50;;;;;;;9.27;47.59;100084.06;1700062;82;21593;-47
2022/05/02 00:49:39;;;;;;;0.60;0.43;;;;;;;9.29;47.72;100086.23;1700874;82;21065;-50
2022/05/02 00:52:07;;;;;;;1.67;0.50;;;;;;;9.30;47.55;100088.45;1697086;82;21546;-48
2022/05/02 00:54:35;;;;;;;1.73;0.67;;;;;;;9.31;47.29;100083.50;1698037;82;21191;-48
2022/05/02 00:57:08;;;;;;;1.77;0.50;;;;;;;9.31;47.49;100084.37;1701204;82;21434;-48
2022/05/02 00:59:38;;;;;;;0.77;0.43;;;;;;;9.31;47.25;100081.69;1702585;82;20966;-49
2022/05/02 01:02:05;;;;;;;1.00;0.50;;;;;;;9.32;47.40;100079.88;1703113;82;21025;-49
2022/05/02 01:04:34;;;;;;;1.00;0.40;;;;;;;9.32;47.29;100073.16;1703697;82;21104;-46
2022/05/02 01:07:10;;;;;;;1.00;0.53;;;;;;;9.32;47.40;100078.54;1703134;82;21006;-49
2022/05/02 01:09:42;;;;;;;1.00;0.50;;;;;;;9.32;47.44;100075.85;1705913;80;21340;-47
2022/05/02 01:12:15;;;;;;;1.13;0.50;;;;;;;9.30;47.37;100070.53;1726201;80;21084;-48
2022/05/02 01:14:49;;;;;;;1.23;0.50;;;;;;;9.29;47.20;100073.27;1726915;80;21507;-50
2022/05/02 01:17:16;;;;;;;0.45;0.40;;;;;;;9.29;47.24;100070.58;1720819;80;21146;-47
2022/05/02 01:19:44;;;;;;;1.20;0.50;;;;;;;9.28;47.21;100064.80;1724384;80;21081;-47
2022/05/02 01:22:10;;;;;;;1.10;0.60;;;;;;;9.27;47.22;100066.61;1725033;80;21485;-51
2022/05/02 01:24:42;;;;;;;0.80;0.40;;;;;;;9.28;47.08;100071.05;1723671;80;21068;-51
2022/05/02 01:27:11;;;;;;;0.70;0.50;;;;;;;9.28;47.18;100068.83;1723573;80;21088;-47
2022/05/02 01:29:41;;;;;;;1.43;0.47;;;;;;;9.27;47.33;100068.45;1721107;80;21451;-48
2022/05/02 01:32:11;;;;;;;1.47;0.60;;;;;;;9.27;47.43;100066.61;1726127;80;21033;-49
2022/05/02 01:34:41;;;;;;;1.07;0.57;;;;;;;9.25;47.38;100065.81;1728364;80;21618;-54
2022/05/02 01:37:08;;;;;;;1.40;0.60;;;;;;;9.23;47.27;100067.67;1725683;80;21364;-50
2022/05/02 01:39:35;;;;;;;0.90;0.53;;;;;;;9.23;47.78;100067.67;1730200;80;21341;-49
2022/05/02 01:42:02;;;;;;;1.83;0.53;;;;;;;9.20;48.23;100071.80;1721511;80;20985;-47
2022/05/02 01:44:29;;;;;;;2.73;0.60;;;;;;;9.18;48.34;100071.48;1724208;80;21057;-47
2022/05/02 01:46:55;;;;;;;2.87;0.60;;;;;;;9.11;48.43;100074.37;1723220;80;23051;-48
2022/05/02 01:49:22;;;;;;;0.83;0.50;;;;;;;9.02;49.06;100072.02;1720834;80;21049;-49
2022/05/02 01:51:49;;;;;;;1.83;0.60;;;;;;;8.91;49.83;100068.88;1719762;80;21070;-48
2022/05/02 01:54:16;;;;;;;0.80;0.50;;;;;;;8.83;50.38;100062.03;1726022;80;21112;-49
2022/05/02 01:56:43;;;;;;;1.00;0.60;;;;;;;8.77;51.01;100063.57;1723203;80;21129;-48
2022/05/02 01:59:10;;;;;;;2.20;0.53;;;;;;;8.71;51.63;100063.34;1720377;80;21740;-52
2022/05/02 02:01:36;;;;;;;1.03;0.40;;;;;;;8.65;52.12;100063.56;1724803;80;21063;-48
2022/05/02 02:06:51;;;;;;;0.80;0.50;;;;;;;8.47;52.81;100064.20;1724123;80;21089;-48
2022/05/02 02:09:17;;;;;;;0.90;0.50;;;;;;;8.34;53.04;100068.63;1726419;80;21081;-48
2022/05/02 02:11:45;;;;;;;1.43;0.60;;;;;;;8.25;53.40;100066.73;1724729;80;21142;-46
2022/05/02 02:14:12;;;;;;;0.67;0.50;;;;;;;8.15;53.78;100060.79;1726600;80;21005;-47
2022/05/02 02:16:39;;;;;;;2.70;0.50;;;;;;;8.10;54.32;100061.84;1727173;80;21050;-49
2022/05/02 02:19:06;;;;;;;1.20;0.60;;;;;;;8.07;54.75;100066.88;1720473;80;21159;-48
2022/05/02 02:21:32;;;;;;;1.23;0.60;;;;;;;8.04;55.01;100065.62;1729284;80;21116;-51
2022/05/02 02:23:59;;;;;;;1.50;0.60;;;;;;;8.01;54.95;100059.01;1723670;80;21145;-50
2022/05/02 02:26:25;;;;;;;5.73;0.60;;;;;;;7.96;54.83;100065.88;1721873;80;21172;-47
2022/05/02 02:28:51;;;;;;;4.93;0.50;;;;;;;7.93;54.81;100066.42;1721710;80;21073;-48
2022/05/02 02:31:17;;;;;;;2.30;0.60;;;;;;;7.89;55.43;100067.47;1719052;80;21094;-48
2022/05/02 02:33:44;;;;;;;0.83;0.53;;;;;;;7.87;56.24;100066.17;1721643;80;21049;-47
2022/05/02 02:36:10;;;;;;;0.70;0.50;;;;;;;7.85;57.03;100066.67;1724121;80;22222;-47
2022/05/02 02:38:37;;;;;;;0.97;0.60;;;;;;;7.82;57.15;100068.59;1726580;80;21045;-46
2022/05/02 02:41:03;;;;;;;1.80;0.67;;;;;;;7.75;57.13;100067.02;1724162;80;21061;-47
2022/05/02 02:43:30;;;;;;;1.73;0.67;;;;;;;7.70;56.59;100071.66;1728072;80;21492;-50
2022/05/02 02:45:56;;;;;;;1.10;0.60;;;;;;;7.64;56.91;100071.39;1723710;80;22334;-49
2022/05/02 02:48:23;;;;;;;1.60;0.60;;;;;;;7.57;57.39;100065.81;1721786;80;21441;-49
2022/05/02 02:50:49;;;;;;;1.67;0.67;;;;;;;7.51;57.47;100070.00;1725882;80;21029;-48
2022/05/02 02:53:16;;;;;;;1.03;0.53;;;;;;;7.48;57.30;100068.77;1719759;80;21474;-47
2022/05/02 02:55:42;;;;;;;1.13;0.80;;;;;;;7.46;57.34;100074.17;1727988;80;21049;-49
2022/05/02 02:58:09;;;;;;;1.20;0.60;;;;;;;7.44;56.90;100078.69;1723404;80;21042;-51
2022/05/02 03:00:35;;;;;;;2.17;0.67;;;;;;;7.41;56.62;100075.22;1725020;80;22436;-49
2022/05/02 03:03:02;;;;;;;2.10;0.60;;;;;;;7.35;56.33;100076.75;1726596;80;21101;-47
2022/05/02 03:08:13;;;;;;;2.93;0.60;;;;;;;7.30;56.66;100078.70;1726688;80;21033;-48
2022/05/02 03:10:40;;;;;;;5.70;0.60;;;;;;;7.29;57.72;100072.92;1722032;80;21093;-48
2022/05/02 03:13:07;;;;;;;0.60;0.40;;;;;;;7.30;58.43;100078.23;1717816;81;22213;-48
2022/05/02 03:15:34;;;;;;;1.50;0.70;;;;;;;7.29;58.69;100079.16;1713135;81;21450;-51
2022/05/02 03:18:01;;;;;;;1.17;0.60;;;;;;;7.23;59.07;100076.64;1712208;81;21026;-48
2022/05/02 03:20:28;;;;;;;0.90;0.50;;;;;;;7.15;59.67;100074.19;1715934;81;21022;-48
2022/05/02 03:22:54;;;;;;;1.10;0.60;;;;;;;7.10;60.14;100080.61;1719895;81;21531;-47
2022/05/02 03:25:21;;;;;;;2.60;0.80;;;;;;;7.04;60.34;100080.80;1717011;81;21194;-48
2022/05/02 03:27:47;;;;;;;1.50;0.67;;;;;;;6.99;60.46;100084.92;1717894;81;21042;-48
2022/05/02 03:30:14;;;;;;;0.87;0.50;;;;;;;6.98;60.83;100086.30;1710480;81;22317;-50
2022/05/02 03:32:40;;;;;;;1.87;0.60;;;;;;;6.97;61.07;100089.47;1718044;81;20966;-49
2022/05/02 03:35:07;;;;;;;0.90;0.60;;;;;;;6.99;61.20;100090.73;1718791;81;21058;-46
2022/05/02 03:37:35;;;;;;;1.83;0.70;;;;;;;6.99;61.19;100088.94;1719087;81;21220;-50
2022/05/02 03:40:01;;;;;;;4.10;0.70;;;;;;;7.00;61.28;100092.03;1723515;81;21018;-48
2022/05/02 03:42:27;;;;;;;14.70;1.13;;;;;;;7.04;61.27;100084.81;1716964;81;22122;-50
2022/05/02 03:44:54;;;;;;;4.53;0.80;;;;;;;7.07;61.16;100090.05;1717755;81;21093;-48
2022/05/02 03:47:20;;;;;;;5.10;0.60;;;;;;;7.11;60.97;100089.94;1715206;81;21102;-48
2022/05/02 03:49:48;;;;;;;3.47;0.70;;;;;;;7.16;60.77;100091.13;1715085;81;21146;-48
2022/05/02 03:52:14;;;;;;;4.07;0.80;;;;;;;7.23;60.80;100094.53;1716284;81;21429;-52
2022/05/02 03:54:40;;;;;;;5.87;0.70;;;;;;;7.32;61.04;100097.79;1715206;81;21443;-50
2022/05/02 03:57:07;;;;;;;3.30;0.60;;;;;;;7.40;60.99;100094.42;1713849;81;21117;-50
2022/05/02 03:59:33;;;;;;;4.83;0.87;;;;;;;7.51;61.08;100092.77;1712293;81;21057;-47
2022/05/02 04:02:00;;;;;;;4.17;1.00;;;;;;;7.64;60.97;100091.48;1718557;81;21096;-49
2022/05/02 04:04:26;;;;;;;1.63;0.80;;;;;;;7.79;61.01;100095.48;1711994;81;21054;-48
2022/05/02 04:06:53;;;;;;;2.70;1.00;;;;;;;7.98;60.95;100093.98;1719857;81;21078;-47
2022/05/02 04:09:19;;;;;;;7.43;0.87;;;;;;;8.28;60.98;100086.25;1712399;81;21333;-46
2022/05/02 04:11:46;;;;;;;1.60;0.80;;;;;;;8.71;60.83;100090.17;1720380;80;21042;-50
2022/05/02 04:14:12;;;;;;;2.20;0.80;;;;;;;9.20;60.41;100095.09;1723153;80;21060;-51
2022/05/02 04:16:39;;;;;;;1.00;0.63;;;;;;;9.66;59.59;100092.89;1722980;80;21065;-51
2022/05/02 04:19:05;;;;;;;3.07;0.70;;;;;;;10.11;58.70;100092.88;1722223;80;21038;-50
2022/05/02 04:21:33;;;;;;;1.10;0.60;;;;;;;10.50;58.21;100082.28;1724864;80;21047;-50
2022/05/02 04:24:00;;;;;;;3.20;0.60;;;;;;;10.80;57.44;100090.88;1722811;80;21054;-48
2022/05/02 04:26:26;;;;;;;1.50;0.70;;;;;;;11.07;56.83;100088.75;1726998;80;21441;-49
2022/05/02 04:28:52;;;;;;;2.07;0.53;;;;;;;11.34;55.85;100084.80;1723827;80;20977;-48
2022/05/02 04:31:18;;;;;;;0.70;0.57;;;;;;;11.50;55.29;100087.66;1725909;80;21073;-51
2022/05/02 04:33:45;;;;;;;0.90;0.60;;;;;;;11.70;54.05;100086.27;1695987;82;21530;-48
2022/05/02 04:36:12;;;;;;;1.20;0.50;;;;;;;11.93;52.01;100083.36;1660480;83;21137;-48
2022/05/02 04:38:38;;;;;;;2.47;0.50;;;;;;;12.05;49.58;100081.43;1726939;80;21740;-48
2022/05/02 04:41:05;;;;;;;0.72;0.53;;;;;;;12.12;48.08;100074.77;1725965;80;21129;-49
2022/05/02 04:43:32;;;;;;;1.17;0.60;;;;;;;12.16;47.14;100075.52;1725109;80;21065;-48
2022/05/02 04:45:58;;;;;;;1.25;0.50;;;;;;;12.19;46.50;100078.51;1724325;80;21045;-49
2022/05/02 04:48:24;;;;;;;1.35;0.50;;;;;;;12.19;46.31;100075.34;1723896;80;21120;-48
2022/05/02 04:50:51;;;;;;;0.82;0.50;;;;;;;12.22;46.17;100077.02;1728256;80;21277;-48
2022/05/02 04:53:17;;;;;;;1.67;0.70;;;;;;;12.25;45.82;100070.97;1728810;80;21041;-50
2022/05/02 04:55:44;;;;;;;1.20;0.60;;;;;;;12.28;45.56;100064.09;1722709;80;21041;-48
2022/05/02 04:58:10;;;;;;;1.20;0.57;;;;;;;12.31;45.68;100069.81;1721352;80;21038;-48
2022/05/02 05:00:36;;;;;;;3.15;0.55;;;;;;;12.36;45.83;100065.05;1725852;80;21046;-51
2022/05/02 05:03:04;;;;;;;0.80;0.40;;;;;;;12.42;45.32;100054.80;1723294;80;21481;-50
2022/05/02 05:05:32;;;;;;;0.72;0.50;;;;;;;12.50;44.79;100060.69;1719769;80;21373;-51
2022/05/02 05:07:59;;;;;;;1.77;0.60;;;;;;;12.58;44.52;100056.74;1727379;80;21025;-49
2022/05/02 05:10:25;;;;;;;0.80;0.50;;;;;;;12.66;44.49;100057.22;1729056;80;21042;-51
2022/05/02 05:13:07;;;;;;;3.50;0.60;;;;;;;12.73;44.08;100056.81;1720972;80;21601;-49
2022/05/02 05:16:24;;;;;;;1.20;0.50;;;;;;;12.81;43.85;100061.34;1723361;80;22303;-49
2022/05/02 05:19:22;;;;;;;0.60;0.40;;;;;;;12.92;43.48;100063.48;1724197;80;21694;-48
2022/05/02 05:22:14;;;;;;;5.87;0.60;;;;;;;13.01;43.26;100063.00;1721858;80;21381;-51
2022/05/02 05:25:04;;;;;;;0.80;0.40;;;;;;;13.12;43.60;100065.10;1725399;80;21049;-47
2022/05/02 05:28:08;;;;;;;0.98;0.47;;;;;;;13.23;43.03;100061.38;1722984;80;21010;-50
2022/05/02 05:30:41;;;;;;;0.68;0.30;;;;;;;13.36;42.32;100065.16;1721580;80;21728;-50
2022/05/02 05:33:18;;;;;;;2.83;0.47;;;;;;;13.52;42.20;100066.09;1723566;80;21034;-51
2022/05/02 05:36:06;;;;;;;0.50;0.30;;;;;;;13.63;42.12;100062.28;1711332;80;21034;-49
2022/05/02 05:39:01;;;;;;;0.40;0.25;;;;;;;13.76;41.44;100057.55;1722443;80;21515;-52
2022/05/02 05:42:08;;;;;;;0.55;0.30;;;;;;;13.87;41.21;100055.09;1724929;80;21592;-50
2022/05/02 05:44:44;;;;;;;3.12;0.20;;;;;;;13.96;40.57;100058.63;1719881;80;22335;-51
2022/05/02 05:47:21;;;;;;;0.62;0.20;;;;;;;14.06;39.98;100058.50;1723970;80;20918;-50
2022/05/02 05:50:06;;;;;;;0.40;0.20;;;;;;;14.14;40.10;100062.11;1725496;80;22359;-49
2022/05/02 05:52:47;;;;;;;1.05;0.20;;;;;;;14.20;39.09;100061.30;1726327;80;20942;-50
2022/05/02 05:55:17;;;;;;;0.30;0.20;;;;;;;14.27;39.00;100062.69;1684938;80;21101;-52
2022/05/02 05:58:10;;;;;;;0.28;0.20;;;;;;;14.35;38.97;100060.87;1725373;80;21117;-48
2022/05/02 06:00:41;;;;;;;0.53;0.20;;;;;;;14.43;38.59;100056.39;1724509;80;21026;-51
2022/05/02 06:03:19;;;;;;;0.35;0.13;;;;;;;14.53;38.65;100058.47;1726154;80;21061;-49
2022/05/02 06:05:47;;;;;;;0.88;0.20;;;;;;;14.60;38.37;100054.42;1724602;80;21050;-48
2022/05/02 06:08:19;;;;;;;0.30;0.20;;;;;;;14.67;38.36;100058.50;1726120;80;21510;-52
2022/05/02 06:10:47;;;;;;;2.17;0.30;;;;;;;14.76;38.71;100055.72;1724783;80;21158;-48
2022/05/02 06:13:16;;;;;;;0.45;0.20;;;;;;;14.85;38.57;100051.10;1716076;81;21316;-50
2022/05/02 06:18:36;;;;;;;0.20;0.20;;;;;;;15.06;38.16;100061.09;1717440;81;21101;-51
2022/05/02 06:21:06;;;;;;;1.95;0.23;;;;;;;15.15;38.31;100055.10;1717052;81;21050;-50
2022/05/02 06:23:42;;;;;;;0.20;0.15;;;;;;;15.23;37.96;100058.20;1712963;81;20970;-49
2022/05/02 06:26:09;;;;;;;0.20;0.20;;;;;;;15.31;37.28;100055.88;1716966;81;21398;-53
2022/05/02 06:28:45;;;;;;;0.60;0.20;;;;;;;15.38;37.18;100053.69;1713683;81;21574;-51
2022/05/02 06:31:26;;;;;;;0.20;0.10;;;;;;;15.44;36.93;100055.52;1712662;81;21519;-51
2022/05/02 06:33:52;;;;;;;0.47;0.20;;;;;;;15.51;36.69;100053.28;1712998;81;21686;-52
2022/05/02 06:37:07;;;;;;;0.30;0.20;;;;;;;15.55;36.49;100058.95;1711821;81;21130;-51
2022/05/02 06:40:02;;;;;;;0.50;0.30;;;;;;;15.58;36.54;100057.37;1714378;81;21037;-53
2022/05/02 06:42:39;;;;;;;0.85;0.20;;;;;;;15.65;36.19;100052.45;1718447;81;21033;-57
2022/05/02 06:45:28;;;;;;;0.40;0.20;;;;;;;15.73;35.97;100044.69;1647478;85;21035;-54
2022/05/02 06:48:34;;;;;;;0.23;0.10;;;;;;;15.78;36.04;100043.41;1719220;81;21045;-50
2022/05/02 06:51:06;;;;;;;0.93;0.20;;;;;;;15.87;35.84;100043.29;1710089;81;21809;-49
2022/05/02 06:53:47;;;;;;;0.40;0.20;;;;;;;15.98;34.77;100035.33;1716115;81;20892;-51
2022/05/02 06:56:30;;;;;;;0.40;0.30;;;;;;;16.10;34.62;100029.55;1716491;81;20911;-53
2022/05/02 06:59:12;;;;;;;0.75;0.20;;;;;;;16.10;34.62;100029.55;1715590;81;21669;-53
2022/05/02 07:01:54;;;;;;;0.20;0.10;;;;;;;16.21;34.51;100033.78;1714005;81;21290;-53
2022/05/02 07:04:29;;;;;;;0.40;0.20;;;;;;;16.29;34.04;100031.42;1702530;81;21512;-49
2022/05/02 07:07:24;;;;;;;1.70;0.20;;;;;;;16.42;34.17;100038.24;1722414;81;21114;-50
2022/05/02 07:10:04;;;;;;;0.35;0.30;;;;;;;16.48;33.74;100027.85;1722254;81;21019;-52
2022/05/02 07:12:32;;;;;;;1.40;0.30;;;;;;;16.57;33.70;100034.51;1731558;80;21300;-50
2022/05/02 07:15:15;;;;;;;1.75;0.20;;;;;;;16.64;34.25;100035.86;1736443;80;20957;-48
2022/05/02 07:18:07;;;;;;;1.05;0.30;;;;;;;16.67;33.94;100027.50;1736246;80;21724;-50
2022/05/02 07:21:02;;;;;;;0.40;0.20;;;;;;;16.75;33.24;100024.25;1736888;80;21492;-51
2022/05/02 07:26:14;;;;;;;2.53;0.30;;;;;;;16.94;34.41;100014.69;1797231;78;23640;-52
2022/05/02 07:28:45;;;;;;;0.47;0.20;;;;;;;16.98;34.30;100015.35;1772024;80;21251;-49
2022/05/02 07:31:13;;;;;;;0.30;0.23;;;;;;;17.07;33.76;100020.63;1768886;80;21159;-50
2022/05/02 07:33:40;;;;;;;1.30;0.20;;;;;;;17.16;33.37;100027.66;1775338;80;20859;-52
2022/05/02 07:36:07;;;;;;;0.50;0.25;;;;;;;17.26;33.00;100023.30;1769238;80;21467;-50
2022/05/02 07:38:35;;;;;;;0.40;0.20;;;;;;;17.35;32.90;100019.05;1773215;80;20894;-51
2022/05/02 07:43:52;;;;;;;1.57;0.20;;;;;;;17.49;33.00;100016.69;1765204;80;21135;-49
2022/05/02 07:46:31;;;;;;;1.65;0.20;;;;;;;17.56;32.21;100022.06;1774113;80;21673;-50
2022/05/02 07:48:58;;;;;;;0.50;0.30;;;;;;;17.64;32.17;100017.83;1770267;80;21333;-50
2022/05/02 07:51:25;;;;;;;0.55;0.20;;;;;;;17.74;30.74;100020.75;1765844;80;21479;-50
2022/05/02 07:53:52;;;;;;;0.85;0.30;;;;;;;17.79;30.89;100018.55;1768640;80;21041;-50
2022/05/02 07:56:25;;;;;;;1.22;0.30;;;;;;;17.84;31.03;100009.57;1766595;80;21527;-49
2022/05/02 07:58:53;;;;;;;0.40;0.20;;;;;;;17.89;31.90;100011.45;1748125;81;20862;-53
2022/05/02 08:01:21;;;;;;;0.40;0.30;;;;;;;17.91;31.38;100008.61;1678089;83;20999;-51
2022/05/02 08:03:47;;;;;;;0.25;0.20;;;;;;;17.95;31.38;100006.05;1703414;82;20974;-50
2022/05/02 08:06:48;;;;;;;0.35;0.20;;;;;;;17.99;31.20;100008.91;1716044;82;21108;-51
2022/05/02 08:09:25;;;;;;;1.10;0.30;;;;;;;18.03;31.34;100004.47;1641014;83;21174;-53
2022/05/02 08:12:04;;;;;;;1.02;0.30;;;;;;;18.09;30.96;100005.88;1701951;82;21033;-48
2022/05/02 08:14:48;;;;;;;3.12;0.30;;;;;;;18.15;31.72;100005.41;1712356;82;21041;-52
2022/05/02 08:17:42;;;;;;;1.12;0.37;;;;;;;18.22;30.94;100001.72;1711383;83;21113;-52
2022/05/02 08:20:32;;;;;;;0.82;0.40;;;;;;;18.28;30.86;99995.34;1664527;85;20938;-51
2022/05/02 08:27:34;;;;;;;0.95;0.30;;;;;;;18.41;30.95;100002.06;1691031;82;21069;-52
2022/05/02 08:29:31;;;;;;;0.60;0.30;;;;;;;18.51;30.12;99997.66;1729545;81;22122;-53
2022/05/02 08:32:11;;;;;;;0.50;0.30;;;;;;;18.56;29.90;99997.28;1740417;81;21345;-52
2022/05/02 08:34:45;;;;;;;0.30;0.20;;;;;;;18.56;30.00;99987.74;1742189;81;21836;-53
2022/05/02 08:37:52;;;;;;;1.17;0.30;;;;;;;18.57;29.53;99986.30;1739310;81;21129;-52
2022/05/02 08:40:27;;;;;;;2.27;0.23;;;;;;;18.62;29.18;99977.78;1741778;81;20969;-53
2022/05/02 08:43:43;;;;;;;1.30;0.30;;;;;;;18.68;29.94;99985.48;1742876;81;21626;-52
2022/05/02 08:46:23;;;;;;;0.60;0.33;;;;;;;18.75;29.37;99979.42;1742431;81;21404;-51
2022/05/02 08:52:04;;;;;;;0.88;0.30;;;;;;;18.80;28.95;99974.46;1740579;81;21037;-53
2022/05/02 08:55:01;;;;;;;0.80;0.33;;;;;;;18.83;28.99;99971.50;1719508;81;21108;-53
2022/05/02 08:57:58;;;;;;;2.87;0.40;;;;;;;18.86;28.50;99967.19;1664011;81;21117;-52
2022/05/02 09:00:40;;;;;;;0.35;0.30;;;;;;;18.83;28.58;99963.33;1741306;81;21102;-52
2022/05/02 09:03:36;;;;;;;0.42;0.30;;;;;;;18.86;28.69;99956.27;1667433;83;21110;-52
2022/05/02 09:06:18;;;;;;;0.40;0.30;;;;;;;18.93;28.22;99967.56;1740796;81;21534;-52
2022/05/02 09:09:26;;;;;;;1.37;0.30;;;;;;;19.03;28.89;99959.52;1738424;81;21104;-52
2022/05/02 09:12:22;;;;;;;0.78;0.30;;;;;;;19.09;28.39;99949.47;1743348;81;21540;-51
2022/05/02 09:15:12;;;;;;;0.82;0.30;;;;;;;19.09;27.97;99946.25;1740559;81;21445;-53
2022/05/02 09:18:14;;;;;;;2.00;0.30;;;;;;;19.09;28.01;99945.38;1740921;81;21432;-52
2022/05/02 09:21:02;;;;;;;0.45;0.30;;;;;;;19.07;27.61;99941.89;1742071;81;21257;-51
2022/05/02 09:23:59;;;;;;;0.62;0.30;;;;;;;19.06;28.33;99937.42;1742539;81;21342;-51
2022/05/02 09:26:57;;;;;;;1.35;0.40;;;;;;;19.05;28.17;99937.08;1742160;81;21115;-52
2022/05/02 09:30:20;;;;;;;1.32;0.40;;;;;;;19.07;28.07;99943.26;1712490;81;20978;-53
2022/05/02 09:33:15;;;;;;;0.65;0.23;;;;;;;19.12;28.25;99928.77;1741797;81;21613;-52
2022/05/02 09:35:53;;;;;;;1.32;0.30;;;;;;;19.16;28.39;99921.56;1743418;81;22182;-52
2022/05/02 09:38:29;;;;;;;0.40;0.30;;;;;;;19.27;27.96;99913.88;1742126;81;20895;-52
2022/05/02 09:41:31;;;;;;;0.37;0.28;;;;;;;19.34;27.67;99904.19;1740829;81;21042;-53
2022/05/02 09:50:23;;;;;;;0.88;0.20;;;;;;;19.60;27.67;99912.50;1734281;81;21415;-53
2022/05/02 09:53:21;;;;;;;1.30;0.40;;;;;;;19.68;28.07;99905.03;1739532;81;21108;-52
2022/05/02 09:59:10;;;;;;;5.03;0.40;;;;;;;19.73;27.40;99891.02;1737139;81;21049;-53
2022/05/02 10:01:40;;;;;;;;;;;;;;;19.81;28.00;99895.33;1746526;81;21359;-53
2022/05/02 10:04:48;;;;;;;0.65;0.37;;;;;;;19.92;27.53;99893.41;1743080;81;21094;-53
2022/05/02 10:07:18;;;;;;;0.85;0.40;;;;;;;20.00;27.61;99889.52;1742367;81;20930;-52
2022/05/02 10:10:25;;;;;;;0.28;0.20;;;;;;;20.05;27.37;99893.75;1743054;81;21008;-52
2022/05/02 10:13:19;;;;;;;0.40;0.30;;;;;;;20.08;27.51;99889.36;1739815;81;21495;-53
2022/05/02 10:16:15;;;;;;;0.30;0.20;;;;;;;20.12;26.93;99881.29;1716263;81;21009;-53
2022/05/02 10:18:51;;;;;;;0.68;0.30;;;;;;;20.08;26.43;99879.30;1741720;81;21140;-52
2022/05/02 10:21:43;;;;;;;0.70;0.37;;;;;;;20.05;26.47;99879.59;1737741;81;21041;-54
2022/05/02 10:24:46;;;;;;;0.50;0.30;;;;;;;19.98;26.51;99883.84;1743277;81;21645;-53
2022/05/02 10:27:24;;;;;;;0.80;0.30;;;;;;;19.94;27.02;99882.36;1736645;81;21745;-53
2022/05/02 10:30:11;;;;;;;0.50;0.30;;;;;;;19.85;27.20;99872.20;1713380;81;21268;-54
2022/05/02 10:32:57;;;;;;;0.72;0.30;;;;;;;19.82;26.09;99874.69;1741856;81;21494;-53
2022/05/02 10:35:22;;;;;;;0.30;0.30;;;;;;;19.78;26.56;99871.86;1735207;81;21625;-53
2022/05/02 10:38:04;;;;;;;0.57;0.30;;;;;;;19.73;26.52;99871.40;1740366;81;20938;-53
2022/05/02 10:40:46;;;;;;;2.65;0.30;;;;;;;19.67;25.97;99869.16;1737932;81;21051;-53
2022/05/02 10:43:23;;;;;;;0.60;0.30;;;;;;;19.58;26.63;99874.89;1737445;81;21032;-54
2022/05/02 10:45:50;;;;;;;0.60;0.30;;;;;;;19.56;26.68;99863.22;1735585;81;21382;-53
2022/05/02 10:48:36;;;;;;;0.45;0.37;;;;;;;19.52;26.33;99856.80;1739519;81;21038;-53
2022/05/02 10:51:26;;;;;;;1.55;0.30;;;;;;;19.51;26.11;99850.96;1738122;81;21570;-53
2022/05/02 10:54:20;;;;;;;2.17;0.30;;;;;;;19.52;26.18;99856.30;1707007;81;21417;-53
2022/05/02 10:56:55;;;;;;;0.50;0.30;;;;;;;19.54;27.08;99847.48;1740105;81;21608;-53
2022/05/02 10:59:23;;;;;;;0.53;0.40;;;;;;;19.60;26.71;99848.33;1738008;81;21101;-53
2022/05/02 11:02:10;;;;;;;2.37;0.30;;;;;;;19.63;26.35;99839.03;1740821;81;21034;-53
2022/05/02 11:04:51;;;;;;;0.93;0.40;;;;;;;19.61;26.93;99838.28;1691261;83;21085;-53
2022/05/02 11:07:41;;;;;;;0.47;0.40;;;;;;;19.56;26.89;99833.19;1732828;81;21025;-54
2022/05/02 11:10:10;;;;;;;1.05;0.50;;;;;;;19.52;26.89;99833.59;1739240;81;21050;-53
2022/05/02 11:13:15;;;;;;;0.68;0.37;;;;;;;19.53;26.86;99829.38;1742304;81;21280;-54
2022/05/02 11:16:00;;;;;;;0.82;0.37;;;;;;;19.57;26.84;99827.23;1737090;81;21090;-53
2022/05/02 11:21:52;;;;;;;0.75;0.35;;;;;;;19.67;26.20;99825.96;1665778;83;21081;-54
2022/05/02 11:24:43;;;;;;;0.40;0.28;;;;;;;19.70;26.28;99819.76;1679084;84;21128;-53
2022/05/02 11:27:29;;;;;;;0.50;0.30;;;;;;;19.71;26.62;99818.77;1731925;81;21629;-55
2022/05/02 11:30:06;;;;;;;0.40;0.30;;;;;;;19.77;26.16;99814.63;1729871;81;20986;-53
2022/05/02 11:32:50;;;;;;;4.33;0.30;;;;;;;19.78;26.72;99812.27;1729790;81;21447;-55
2022/05/02 11:35:30;;;;;;;1.85;0.30;;;;;;;19.76;26.35;99810.16;1726175;81;22392;-54
2022/05/02 11:38:08;;;;;;;0.50;0.30;;;;;;;19.74;26.17;99811.66;1729586;81;20939;-54
2022/05/02 11:40:47;;;;;;;0.72;0.30;;;;;;;19.73;26.67;99810.45;1727442;81;21513;-54
2022/05/02 11:43:17;;;;;;;0.65;0.30;;;;;;;19.79;26.94;99808.55;1729302;81;20947;-53
2022/05/02 11:46:09;;;;;;;10.82;0.40;;;;;;;19.84;27.41;99802.18;1723619;81;21630;-54
2022/05/02 11:49:15;;;;;;;5.75;0.30;;;;;;;19.93;26.44;99787.23;1726419;81;21022;-54
2022/05/02 11:51:48;;;;;;;2.40;0.30;;;;;;;20.01;26.70;99784.70;1682121;84;21276;-51
2022/05/02 11:54:35;;;;;;;3.40;0.23;;;;;;;20.12;26.46;99787.02;1726134;82;21463;-52
2022/05/02 11:57:25;;;;;;;2.02;0.50;;;;;;;20.22;26.56;99782.48;1726705;81;20868;-56
2022/05/02 12:00:05;;;;;;;0.60;0.30;;;;;;;20.31;26.44;99781.68;1724432;81;21051;-56
2022/05/02 12:02:46;;;;;;;0.30;0.20;;;;;;;20.35;25.94;99778.56;1724869;81;21269;-53
2022/05/02 12:05:33;;;;;;;0.30;0.23;;;;;;;20.36;25.88;99775.33;1725501;81;21041;-53
2022/05/02 12:08:07;;;;;;;0.60;0.30;;;;;;;20.29;25.71;99779.08;1725552;81;21050;-53
2022/05/02 12:10:47;;;;;;;1.72;0.20;;;;;;;20.28;26.24;99774.60;1726766;81;21033;-51
2022/05/02 12:13:18;;;;;;;0.62;0.30;;;;;;;20.29;26.05;99765.91;1724136;81;21082;-50
2022/05/02 12:16:00;;;;;;;0.40;0.30;;;;;;;20.31;26.14;99762.05;1723559;81;21101;-52
2022/05/02 12:18:48;;;;;;;0.20;0.20;;;;;;;20.35;26.32;99760.78;1725226;81;21006;-51
2022/05/02 12:21:36;;;;;;;0.30;0.20;;;;;;;20.40;26.01;99753.56;1727289;81;21547;-52
2022/05/02 12:24:04;;;;;;;1.10;0.30;;;;;;;20.42;25.30;99744.70;1728341;81;21116;-50
2022/05/02 12:26:32;;;;;;;2.17;0.25;;;;;;;20.43;24.90;99746.94;1725657;81;21618;-54
2022/05/02 12:29:04;;;;;;;0.40;0.30;;;;;;;20.45;25.63;99740.34;1722329;81;21698;-53
2022/05/02 12:31:36;;;;;;;0.98;0.20;;;;;;;20.51;25.34;99737.05;1724774;81;21051;-51
2022/05/02 12:34:09;;;;;;;0.40;0.30;;;;;;;20.57;25.63;99743.36;1726502;81;21382;-50
2022/05/02 12:36:52;;;;;;;1.10;0.30;;;;;;;20.61;25.51;99747.53;1727251;81;21380;-51
2022/05/02 12:39:27;;;;;;;0.60;0.30;;;;;;;20.63;25.17;99741.92;1725543;81;21062;-49
2022/05/02 12:42:01;;;;;;;0.85;0.20;;;;;;;20.60;25.33;99740.33;1727039;81;21034;-53
2022/05/02 12:44:39;;;;;;;1.65;0.20;;;;;;;20.58;25.68;99738.75;1722086;81;20963;-53
2022/05/02 12:47:05;;;;;;;3.42;0.72;;;;;;;20.53;25.69;99740.52;1697724;81;22124;-53